ADDS METAR Data INFO
IDs: Format: Raw Decoded Include TAF

Data at: 1318 UTC 29 Mar 2017

ETSI 291220Z 27011KT 9999 FEW050 BKN260 18/05 Q1026 BLU+BLU+


Page loaded:  13:18 UTC  |   06:18 AM Pacific  |   07:18 AM Mountain  |   08:18 AM Central  |   09:18 AM Eastern

 

ADVISORIES

FORECASTS

FORECASTS

OBSERVATIONS

USER TOOLS

ABOUT US